This is the latest recevied weather packets stored in our database for station/object NI0Z. If no packets are shown the sender has not sent any weather packets the latest 10 day(s).
| Time | Temp. | Humidity | Pressure | Rain* | Wind** | Luminosity | Snow |
|---|---|---|---|---|---|---|---|
| 1777959655 | 15° C | 74% | - | 7.11 mm | - | - | - |
| 1777959351 | 16.67° C | 67% | - | 3.05 mm | - | - | - |
| 1777959048 | 17.22° C | 60% | - | 0 mm | - | - | - |
| 1777958745 | 17.22° C | 60% | - | 0 mm | - | - | - |
| 1777958443 | 17.78° C | 58% | - | 0 mm | - | - | - |
| 1777958139 | 18.33° C | 55% | - | 0 mm | - | - | - |
| 1777957838 | 18.89° C | 52% | - | 0 mm | - | - | - |
| 1777957535 | 20° C | 47% | - | 0 mm | - | - | - |
| 1777957233 | 20.56° C | 51% | - | 0 mm | - | - | - |
| 1777956929 | 20° C | 68% | - | 0 mm | - | - | - |
| 1777956626 | 20° C | 74% | - | 0 mm | - | - | - |
| 1777956324 | 20° C | 74% | - | 0 mm | - | - | - |
| 1777956020 | 20° C | 74% | - | 0 mm | - | - | - |
| 1777955716 | 20° C | 73% | - | 0 mm | - | - | - |
| 1777955413 | 20.56° C | 72% | - | 0 mm | - | - | - |
| 1777955109 | 20.56° C | 72% | - | 0 mm | - | - | - |
| 1777954806 | 20.56° C | 72% | - | 0 mm | - | - | - |
| 1777954503 | 20.56° C | 72% | - | 0 mm | - | - | - |
| 1777954201 | 20.56° C | 72% | - | 0 mm | - | - | - |
| 1777953898 | 20.56° C | 72% | - | 0 mm | - | - | - |
| 1777953594 | 21.11° C | 71% | - | 0 mm | - | - | - |
| 1777953290 | 21.11° C | 71% | - | 0 mm | - | - | - |
| 1777952988 | 21.11° C | 71% | - | 0 mm | - | - | - |
| 1777952684 | 21.11° C | 71% | - | 0 mm | - | - | - |
| 1777952381 | 21.11° C | 71% | - | 0 mm | - | - | - |
* Rain latest hour (hover to see other rain measurements)
** Current wind speed in m/s (hover to see current wind gust speed)